createdAt,value
2023-02-22T00:01:07.338Z,6.53
2023-02-22T00:03:36.776Z,8.70
2023-02-22T00:06:06.828Z,6.50
2023-02-22T00:08:37.500Z,8.10
2023-02-22T00:11:08.705Z,7.63
2023-02-22T00:13:37.703Z,9.80
2023-02-22T00:16:06.649Z,11.27
2023-02-22T00:18:38.273Z,10.93
2023-02-22T00:21:10.543Z,8.07
2023-02-22T00:23:41.069Z,8.40
2023-02-22T00:26:10.180Z,6.90
2023-02-22T00:28:38.623Z,6.57
2023-02-22T00:31:09.503Z,7.17
2023-02-22T00:33:42.424Z,10.43
2023-02-22T00:36:12.333Z,10.30
2023-02-22T00:38:41.231Z,9.40
2023-02-22T00:41:09.650Z,17.20
2023-02-22T00:43:40.312Z,9.87
2023-02-22T00:46:08.764Z,7.97
2023-02-22T00:48:36.628Z,9.53
2023-02-22T00:51:06.308Z,7.90
2023-02-22T00:53:34.444Z,12.57
2023-02-22T00:56:02.523Z,12.27
2023-02-22T00:58:30.455Z,8.53
2023-02-22T01:01:01.574Z,11.03
2023-02-22T01:03:32.212Z,7.83
2023-02-22T01:06:00.498Z,8.13
2023-02-22T01:08:31.153Z,11.77
2023-02-22T01:10:59.790Z,15.83
2023-02-22T01:13:30.005Z,9.93
2023-02-22T01:15:58.216Z,9.10
2023-02-22T01:18:26.930Z,10.83
2023-02-22T01:20:57.315Z,10.03
2023-02-22T01:23:25.241Z,8.77
2023-02-22T01:25:54.821Z,12.60
2023-02-22T01:28:23.035Z,10.53
2023-02-22T01:30:51.718Z,9.83
2023-02-22T01:33:19.732Z,8.03
2023-02-22T01:35:48.488Z,9.73
2023-02-22T01:38:16.319Z,12.97
2023-02-22T01:40:48.513Z,8.10
2023-02-22T01:43:22.054Z,14.13
2023-02-22T01:46:00.345Z,12.50
2023-02-22T01:48:37.197Z,11.40
2023-02-22T01:51:10.884Z,8.23
2023-02-22T01:53:45.093Z,7.67
2023-02-22T01:56:16.299Z,6.63
2023-02-22T01:58:50.547Z,5.00
2023-02-22T02:01:21.565Z,8.13
2023-02-22T02:03:53.152Z,7.07
2023-02-22T02:06:21.985Z,7.50
2023-02-22T02:08:59.883Z,8.77
2023-02-22T02:11:32.209Z,8.03
2023-02-22T02:14:02.672Z,7.73
2023-02-22T02:16:38.898Z,6.60
2023-02-22T02:19:12.489Z,6.17
2023-02-22T02:22:10.682Z,7.73
2023-02-22T02:25:17.386Z,7.20
2023-02-22T02:28:06.274Z,8.00
2023-02-22T02:34:01.325Z,10.50
2023-02-22T02:36:34.049Z,10.17
2023-02-22T02:39:11.685Z,6.20
2023-02-22T02:41:46.389Z,6.27
2023-02-22T02:44:23.521Z,7.37
2023-02-22T02:46:57.854Z,7.07
2023-02-22T02:49:32.087Z,6.63
2023-02-22T02:52:03.648Z,9.23
2023-02-22T02:54:33.323Z,14.33
2023-02-22T02:57:01.420Z,8.33
2023-02-22T02:59:31.985Z,8.40
2023-02-22T03:02:16.350Z,7.63
2023-02-22T03:05:07.386Z,6.30
2023-02-22T03:07:47.438Z,8.47
2023-02-22T03:10:30.770Z,9.97
2023-02-22T03:13:04.735Z,6.73
2023-02-22T03:15:45.707Z,6.00
2023-02-22T03:18:22.797Z,9.13
2023-02-22T03:21:00.576Z,7.20
2023-02-22T03:23:35.239Z,7.10
2023-02-22T03:26:09.393Z,8.33
2023-02-22T03:28:41.739Z,7.83
2023-02-22T03:31:15.154Z,8.70
2023-02-22T03:33:49.874Z,9.67
2023-02-22T03:36:24.886Z,8.33
2023-02-22T03:38:58.822Z,9.63
2023-02-22T03:41:28.873Z,7.40
2023-02-22T03:44:02.907Z,6.73
2023-02-22T03:46:32.666Z,8.20
2023-02-22T03:49:09.633Z,7.80
2023-02-22T03:51:42.619Z,9.13
2023-02-22T03:54:16.710Z,9.23
2023-02-22T03:56:54.487Z,9.33
2023-02-22T03:59:25.274Z,11.20
2023-02-22T04:01:53.648Z,6.97
2023-02-22T04:04:23.781Z,7.57
2023-02-22T04:06:54.669Z,6.70
2023-02-22T04:09:23.163Z,8.90
2023-02-22T04:11:51.128Z,9.83
2023-02-22T04:14:19.461Z,6.23
2023-02-22T04:16:49.927Z,7.00
2023-02-22T04:19:18.921Z,7.17
2023-02-22T04:21:46.995Z,10.23
2023-02-22T04:24:23.450Z,6.00
2023-02-22T04:26:53.193Z,17.63
2023-02-22T04:29:23.058Z,7.53
2023-02-22T04:31:53.264Z,6.40
2023-02-22T04:34:21.220Z,10.00
2023-02-22T04:36:49.688Z,7.57
2023-02-22T04:39:18.783Z,5.83
2023-02-22T04:41:48.476Z,6.00
2023-02-22T04:44:16.485Z,8.93
2023-02-22T04:46:46.662Z,8.90
2023-02-22T04:49:16.554Z,7.03
2023-02-22T04:51:46.094Z,6.87
2023-02-22T04:54:14.672Z,5.53
2023-02-22T04:56:47.926Z,6.80
2023-02-22T04:59:19.704Z,9.10
2023-02-22T05:01:54.339Z,8.00
2023-02-22T05:04:23.224Z,12.20
2023-02-22T05:06:53.312Z,7.53
2023-02-22T05:09:22.956Z,10.20
2023-02-22T05:11:54.968Z,7.83
2023-02-22T05:14:26.576Z,24.60
2023-02-22T05:16:56.281Z,5.40
2023-02-22T05:19:24.945Z,5.10
2023-02-22T05:21:52.803Z,5.57
2023-02-22T05:24:21.140Z,8.03
2023-02-22T05:26:51.144Z,9.50
2023-02-22T05:29:21.346Z,9.27
2023-02-22T05:31:51.797Z,5.60
2023-02-22T05:34:19.658Z,5.87
2023-02-22T05:36:47.763Z,6.00
2023-02-22T05:39:16.195Z,7.03
2023-02-22T05:41:44.095Z,8.30
2023-02-22T05:44:12.061Z,9.23
2023-02-22T05:46:41.569Z,7.73
2023-02-22T05:49:09.584Z,7.87
2023-02-22T05:51:37.556Z,8.70
2023-02-22T05:54:05.833Z,9.13
2023-02-22T05:56:34.309Z,19.10
2023-02-22T05:59:02.860Z,8.97
2023-02-22T06:01:33.360Z,7.70
2023-02-22T06:04:03.127Z,7.17
2023-02-22T06:06:31.175Z,10.87
2023-02-22T06:08:59.041Z,5.90
2023-02-22T06:11:29.661Z,9.00
2023-02-22T06:13:58.982Z,8.20
2023-02-22T06:16:27.048Z,8.67
2023-02-22T06:18:54.875Z,8.10
2023-02-22T06:21:24.448Z,7.43
2023-02-22T06:23:52.295Z,6.47
2023-02-22T06:26:20.946Z,8.20
2023-02-22T06:28:49.175Z,13.03
2023-02-22T06:31:19.715Z,7.47
2023-02-22T06:33:48.908Z,9.20
2023-02-22T06:36:16.811Z,10.73
2023-02-22T06:38:46.670Z,10.57
2023-02-22T06:41:17.235Z,8.00
2023-02-22T06:43:45.456Z,11.47
2023-02-22T06:46:14.154Z,7.57
2023-02-22T06:48:42.163Z,12.10
2023-02-22T06:51:10.758Z,9.87
2023-02-22T06:53:38.913Z,8.43
2023-02-22T06:56:09.714Z,7.97
2023-02-22T06:58:38.895Z,9.33
2023-02-22T07:01:07.957Z,10.63
2023-02-22T07:03:37.385Z,9.30
2023-02-22T07:06:06.250Z,10.77
2023-02-22T07:08:34.266Z,10.63
2023-02-22T07:11:04.987Z,20.10
2023-02-22T07:13:34.974Z,16.33
2023-02-22T07:16:09.418Z,10.70
2023-02-22T07:18:38.603Z,14.23
2023-02-22T07:21:08.532Z,9.93
2023-02-22T07:23:36.499Z,9.73
2023-02-22T07:26:06.702Z,10.87
2023-02-22T07:28:36.151Z,8.57
2023-02-22T07:31:04.970Z,14.70
2023-02-22T07:33:32.973Z,10.90
2023-02-22T07:36:01.104Z,9.13
2023-02-22T07:38:29.430Z,11.13
2023-02-22T07:41:00.488Z,9.10
2023-02-22T07:43:31.187Z,10.07
2023-02-22T07:46:03.658Z,8.20
2023-02-22T07:48:32.920Z,7.67
2023-02-22T07:51:01.126Z,8.10
2023-02-22T07:53:33.589Z,9.53
2023-02-22T07:56:03.575Z,18.47
2023-02-22T07:58:33.278Z,9.10
2023-02-22T08:01:03.612Z,13.00
2023-02-22T08:03:36.327Z,5.67
2023-02-22T08:06:07.877Z,15.50
2023-02-22T08:08:36.492Z,23.73
2023-02-22T08:11:04.769Z,12.07
2023-02-22T08:13:33.872Z,16.87
2023-02-22T08:16:04.714Z,12.17
2023-02-22T08:18:32.961Z,12.60
2023-02-22T08:21:01.126Z,16.13
2023-02-22T08:23:29.649Z,18.10
2023-02-22T08:26:06.408Z,15.43
2023-02-22T08:28:34.362Z,22.90
2023-02-22T08:31:03.636Z,18.80
2023-02-22T08:33:32.043Z,17.17
2023-02-22T08:36:01.619Z,19.23
2023-02-22T08:38:32.248Z,17.80
2023-02-22T08:41:01.074Z,16.13
2023-02-22T08:43:29.518Z,11.73
2023-02-22T08:45:58.037Z,19.97
2023-02-22T08:48:27.394Z,11.30
2023-02-22T08:50:56.186Z,13.07
2023-02-22T08:53:24.083Z,15.53
2023-02-22T08:55:55.009Z,16.00
2023-02-22T08:58:23.265Z,18.87
2023-02-22T09:00:51.344Z,25.57
2023-02-22T09:03:19.335Z,27.57
2023-02-22T09:05:49.623Z,22.67
2023-02-22T09:08:18.100Z,24.90
2023-02-22T09:10:46.557Z,26.90
2023-02-22T09:13:15.211Z,26.43
2023-02-22T09:15:43.056Z,29.00
2023-02-22T09:18:18.046Z,25.40
2023-02-22T09:20:46.453Z,22.70
2023-02-22T09:23:16.025Z,20.50
2023-02-22T09:25:44.100Z,27.93
2023-02-22T09:28:12.342Z,26.10
2023-02-22T09:30:45.989Z,25.50
2023-02-22T09:33:18.095Z,26.43
2023-02-22T09:35:49.789Z,35.73
2023-02-22T09:38:24.730Z,37.87
2023-02-22T09:40:56.344Z,41.23
2023-02-22T09:43:35.790Z,29.13
2023-02-22T09:46:13.957Z,22.23
2023-02-22T09:48:58.831Z,29.57
2023-02-22T09:51:31.850Z,18.53
2023-02-22T09:54:04.264Z,19.37
2023-02-22T09:56:35.052Z,22.33
2023-02-22T09:59:12.283Z,28.93
2023-02-22T10:01:44.084Z,20.77
2023-02-22T10:04:19.550Z,22.07
2023-02-22T10:07:06.961Z,22.10
2023-02-22T10:09:43.891Z,23.80
2023-02-22T10:12:16.362Z,21.47
2023-02-22T10:15:02.018Z,33.23
2023-02-22T10:17:36.894Z,20.23
2023-02-22T10:20:29.726Z,20.73
2023-02-22T10:23:06.361Z,22.77
2023-02-22T10:25:39.085Z,26.87
2023-02-22T10:28:14.440Z,23.20
2023-02-22T10:30:49.365Z,21.90
2023-02-22T10:33:22.279Z,19.30
2023-02-22T10:35:53.187Z,19.97
2023-02-22T10:38:24.306Z,23.13
2023-02-22T10:40:58.098Z,32.23
2023-02-22T10:43:26.757Z,25.33
2023-02-22T10:46:01.446Z,23.27
2023-02-22T10:48:36.489Z,36.63
2023-02-22T10:51:08.594Z,24.10
2023-02-22T10:53:37.993Z,24.37
2023-02-22T10:56:15.754Z,24.40
2023-02-22T10:58:52.866Z,24.17
2023-02-22T11:01:36.464Z,21.37
2023-02-22T11:04:12.468Z,22.57
2023-02-22T11:06:45.679Z,21.67
2023-02-22T11:09:17.941Z,22.27
2023-02-22T11:11:49.849Z,28.20
2023-02-22T11:14:28.708Z,22.13
2023-02-22T11:16:59.600Z,19.30
2023-02-22T11:19:32.760Z,24.30
2023-02-22T11:22:14.169Z,19.43
2023-02-22T11:24:51.634Z,22.40
2023-02-22T11:27:33.067Z,20.80
2023-02-22T11:30:22.612Z,18.83
2023-02-22T11:32:54.495Z,21.57
2023-02-22T11:35:41.612Z,28.83
2023-02-22T11:38:22.021Z,24.00
2023-02-22T11:41:09.145Z,22.07
2023-02-22T11:43:38.804Z,17.80
2023-02-22T11:46:10.687Z,18.30
2023-02-22T11:48:44.882Z,20.13
2023-02-22T11:51:30.170Z,16.17
2023-02-22T11:54:28.875Z,17.80
2023-02-22T11:57:10.052Z,26.60
2023-02-22T11:59:51.680Z,18.47
2023-02-22T12:02:43.685Z,18.03
2023-02-22T12:05:37.965Z,15.07
2023-02-22T12:08:20.481Z,16.33
2023-02-22T12:11:03.481Z,15.90
2023-02-22T12:13:41.270Z,16.63
2023-02-22T12:16:23.612Z,14.80
2023-02-22T12:19:09.719Z,14.53
2023-02-22T12:21:43.131Z,16.73
2023-02-22T12:24:16.598Z,19.67
2023-02-22T12:26:49.283Z,16.43
2023-02-22T12:29:26.883Z,16.03
2023-02-22T12:32:03.395Z,17.40
2023-02-22T12:34:38.890Z,18.43
2023-02-22T12:37:16.109Z,16.23
2023-02-22T12:39:54.921Z,20.20
2023-02-22T12:42:30.675Z,19.30
2023-02-22T12:45:10.387Z,19.40
2023-02-22T12:47:48.932Z,16.60
2023-02-22T12:50:22.429Z,19.10
2023-02-22T12:52:57.781Z,16.00
2023-02-22T12:55:27.943Z,15.60
2023-02-22T12:58:05.412Z,18.10
2023-02-22T13:00:39.602Z,14.70
2023-02-22T13:03:28.758Z,13.90
2023-02-22T13:06:06.321Z,16.80
2023-02-22T13:08:41.530Z,14.57
2023-02-22T13:11:21.121Z,18.57
2023-02-22T13:14:06.658Z,15.17
2023-02-22T13:16:43.706Z,21.03
2023-02-22T13:19:25.366Z,14.70
2023-02-22T13:21:59.958Z,18.53
2023-02-22T13:24:39.223Z,16.47
2023-02-22T13:27:16.820Z,13.97
2023-02-22T13:29:50.126Z,16.83
2023-02-22T13:32:28.436Z,14.47
2023-02-22T13:35:36.746Z,13.73
2023-02-22T13:38:25.597Z,21.40
2023-02-22T13:41:29.029Z,17.00
2023-02-22T13:44:26.817Z,17.10
2023-02-22T13:47:21.180Z,15.63
2023-02-22T13:50:02.380Z,10.97
2023-02-22T13:52:35.798Z,12.13
2023-02-22T13:55:16.845Z,14.73
2023-02-22T13:57:48.539Z,12.40
2023-02-22T14:00:24.458Z,14.00
2023-02-22T14:03:03.057Z,17.80
2023-02-22T14:05:50.155Z,15.03
2023-02-22T14:08:42.716Z,15.70
2023-02-22T14:11:45.095Z,11.20
2023-02-22T14:14:18.317Z,20.23
2023-02-22T14:17:17.932Z,12.00
2023-02-22T14:20:01.881Z,14.33
2023-02-22T14:22:31.148Z,12.27
2023-02-22T14:25:02.379Z,16.17
2023-02-22T14:27:41.325Z,15.33
2023-02-22T14:30:26.648Z,21.70
2023-02-22T14:32:55.050Z,15.53
2023-02-22T14:35:28.720Z,13.73
2023-02-22T14:38:03.123Z,15.73
2023-02-22T14:40:35.699Z,14.20
2023-02-22T14:43:07.201Z,14.33
2023-02-22T14:45:37.692Z,14.37
2023-02-22T14:48:24.907Z,9.80
2023-02-22T14:50:56.951Z,12.37
2023-02-22T14:53:29.955Z,15.57
2023-02-22T14:56:03.855Z,18.53
2023-02-22T14:58:41.190Z,13.43
2023-02-22T15:01:31.244Z,12.60
2023-02-22T15:04:18.000Z,16.87
2023-02-22T15:06:47.152Z,12.07
2023-02-22T15:09:25.063Z,12.10
2023-02-22T15:12:12.996Z,15.20
2023-02-22T15:14:44.619Z,12.90
2023-02-22T15:17:19.621Z,11.57
2023-02-22T15:19:49.525Z,17.80
2023-02-22T15:22:22.109Z,11.23
2023-02-22T15:24:59.920Z,16.70
2023-02-22T15:27:36.793Z,14.67
2023-02-22T15:30:09.629Z,9.80
2023-02-22T15:32:53.513Z,16.30
2023-02-22T15:35:31.040Z,11.07
2023-02-22T15:38:01.261Z,12.00
2023-02-22T15:40:33.156Z,12.80
2023-02-22T15:43:04.302Z,12.70
2023-02-22T15:45:33.043Z,13.50
2023-02-22T15:48:06.950Z,12.23
2023-02-22T15:50:35.973Z,14.20
2023-02-22T15:53:07.157Z,13.97
2023-02-22T15:55:40.976Z,13.43
2023-02-22T15:58:14.235Z,19.23
2023-02-22T16:00:44.682Z,13.03
2023-02-22T16:03:15.029Z,18.83
2023-02-22T16:05:46.615Z,12.60
2023-02-22T16:08:18.825Z,15.70
2023-02-22T16:10:54.764Z,15.50
2023-02-22T16:13:32.003Z,9.83
2023-02-22T16:16:02.980Z,14.93
2023-02-22T16:18:34.058Z,13.97
2023-02-22T16:21:08.157Z,18.93
2023-02-22T16:23:47.154Z,17.97
2023-02-22T16:26:27.096Z,16.30
2023-02-22T16:28:58.591Z,14.43
2023-02-22T16:31:29.655Z,21.90
2023-02-22T16:33:59.318Z,18.83
2023-02-22T16:36:40.038Z,19.93
2023-02-22T16:39:09.098Z,21.93
2023-02-22T16:41:37.275Z,14.27
2023-02-22T16:44:08.665Z,17.30
2023-02-22T16:46:37.910Z,19.37
2023-02-22T16:49:06.399Z,17.07
2023-02-22T16:51:40.772Z,25.43
2023-02-22T16:54:12.721Z,21.83
2023-02-22T16:56:42.316Z,15.87
2023-02-22T16:59:15.168Z,17.67
2023-02-22T17:01:47.898Z,19.70
2023-02-22T17:04:17.935Z,20.17
2023-02-22T17:06:46.656Z,20.00
2023-02-22T17:09:16.596Z,22.60
2023-02-22T17:11:45.397Z,25.67
2023-02-22T17:14:18.026Z,17.83
2023-02-22T17:16:46.890Z,19.27
2023-02-22T17:19:17.460Z,16.83
2023-02-22T17:21:45.412Z,25.53
2023-02-22T17:24:13.989Z,20.80
2023-02-22T17:26:41.921Z,22.00
2023-02-22T17:29:10.470Z,21.63
2023-02-22T17:31:40.461Z,19.93
2023-02-22T17:34:08.783Z,18.30
2023-02-22T17:36:37.369Z,23.80
2023-02-22T17:39:06.348Z,17.90
2023-02-22T17:41:34.252Z,21.20
2023-02-22T17:44:02.094Z,23.33
2023-02-22T17:46:30.007Z,22.37
2023-02-22T17:48:59.547Z,18.03
2023-02-22T17:51:27.917Z,20.53
2023-02-22T17:53:56.417Z,17.57
2023-02-22T17:56:24.582Z,21.20
2023-02-22T17:58:55.568Z,18.10
2023-02-22T18:01:26.983Z,21.60
2023-02-22T18:04:01.370Z,19.63
2023-02-22T18:06:34.953Z,20.20
2023-02-22T18:09:10.054Z,17.90
2023-02-22T18:11:40.616Z,31.80
2023-02-22T18:14:12.130Z,18.73
2023-02-22T18:16:40.003Z,18.30
2023-02-22T18:19:09.400Z,19.30
2023-02-22T18:21:38.710Z,20.40
2023-02-22T18:24:08.968Z,19.37
2023-02-22T18:26:38.871Z,16.77
2023-02-22T18:29:07.478Z,19.80
2023-02-22T18:31:35.702Z,17.70
2023-02-22T18:34:03.741Z,21.53
2023-02-22T18:36:33.121Z,16.60
2023-02-22T18:39:01.122Z,17.23
2023-02-22T18:41:31.234Z,16.90
2023-02-22T18:44:00.815Z,24.30
2023-02-22T18:46:30.054Z,28.00
2023-02-22T18:48:58.988Z,17.00
2023-02-22T18:51:27.569Z,20.30
2023-02-22T18:54:00.559Z,17.70
2023-02-22T18:56:30.747Z,16.33
2023-02-22T18:59:00.671Z,18.57
2023-02-22T19:01:29.929Z,20.80
2023-02-22T19:03:59.885Z,17.13
2023-02-22T19:06:28.067Z,22.90
2023-02-22T19:09:01.297Z,19.20
2023-02-22T19:11:29.955Z,21.93
2023-02-22T19:13:58.757Z,20.00
2023-02-22T19:16:28.715Z,14.70
2023-02-22T19:18:58.653Z,23.77
2023-02-22T19:21:28.059Z,16.93
2023-02-22T19:24:03.179Z,17.43
2023-02-22T19:26:32.280Z,16.87
2023-02-22T19:29:08.531Z,18.87
2023-02-22T19:31:36.848Z,18.33
2023-02-22T19:34:08.913Z,20.70
2023-02-22T19:36:39.388Z,21.87
2023-02-22T19:39:09.213Z,30.50
2023-02-22T19:41:38.412Z,22.37
2023-02-22T19:44:06.978Z,22.30
2023-02-22T19:46:35.094Z,16.40
2023-02-22T19:49:03.328Z,22.23
2023-02-22T19:51:33.098Z,14.77
2023-02-22T19:54:03.569Z,19.83
2023-02-22T19:56:35.673Z,20.43
2023-02-22T19:59:09.393Z,15.60
2023-02-22T20:01:37.882Z,19.90
2023-02-22T20:04:08.098Z,15.60
2023-02-22T20:06:40.273Z,30.10
2023-02-22T20:09:10.010Z,19.90
2023-02-22T20:11:41.742Z,19.97
2023-02-22T20:14:09.605Z,17.90
2023-02-22T20:16:38.516Z,15.07
2023-02-22T20:19:07.853Z,19.93
2023-02-22T20:21:36.736Z,20.83
2023-02-22T20:24:07.635Z,14.53
2023-02-22T20:26:38.237Z,14.80
2023-02-22T20:29:09.233Z,18.50
2023-02-22T20:31:38.024Z,16.20
2023-02-22T20:34:07.102Z,20.67
2023-02-22T20:36:36.158Z,17.27
2023-02-22T20:39:07.426Z,20.03
2023-02-22T20:41:37.254Z,13.30
2023-02-22T20:44:06.955Z,18.53
2023-02-22T20:46:36.738Z,22.53
2023-02-22T20:49:11.099Z,17.53
2023-02-22T20:51:40.387Z,18.47
2023-02-22T20:54:12.176Z,14.33
2023-02-22T20:56:42.272Z,16.97
2023-02-22T20:59:15.337Z,32.17
2023-02-22T21:01:47.742Z,20.77
2023-02-22T21:04:15.768Z,21.90
2023-02-22T21:06:44.507Z,21.03
2023-02-22T21:09:14.419Z,18.10
2023-02-22T21:11:42.907Z,23.57
2023-02-22T21:14:16.632Z,18.13
2023-02-22T21:16:47.723Z,22.30
2023-02-22T21:19:25.987Z,14.77
2023-02-22T21:21:56.171Z,16.67
2023-02-22T21:24:25.760Z,15.90
2023-02-22T21:26:53.878Z,12.23
2023-02-22T21:29:22.188Z,14.50
2023-02-22T21:31:51.788Z,16.73
2023-02-22T21:34:20.129Z,23.60
2023-02-22T21:36:48.234Z,10.33
2023-02-22T21:39:19.117Z,12.70
2023-02-22T21:41:48.453Z,18.33
2023-02-22T21:44:19.991Z,15.67
2023-02-22T21:46:49.825Z,13.73
2023-02-22T21:49:22.455Z,14.37
2023-02-22T21:51:52.541Z,11.70
2023-02-22T21:54:20.913Z,11.93
2023-02-22T21:56:48.905Z,15.50
2023-02-22T21:59:22.389Z,14.97
2023-02-22T22:01:55.278Z,14.63
2023-02-22T22:04:27.498Z,23.57
2023-02-22T22:06:59.809Z,18.40
2023-02-22T22:09:32.914Z,18.23
2023-02-22T22:12:05.053Z,15.33
2023-02-22T22:14:34.617Z,13.17
2023-02-22T22:17:05.849Z,20.90
2023-02-22T22:19:40.417Z,21.23
2023-02-22T22:22:08.857Z,16.07
2023-02-22T22:24:37.589Z,18.13
2023-02-22T22:27:09.778Z,19.93
2023-02-22T22:29:37.736Z,18.30
2023-02-22T22:32:07.129Z,15.00
2023-02-22T22:34:37.807Z,14.73
2023-02-22T22:37:05.948Z,14.53
2023-02-22T22:39:35.980Z,17.43
2023-02-22T22:42:04.086Z,14.70
2023-02-22T22:44:41.850Z,21.40
2023-02-22T22:47:12.149Z,14.37
2023-02-22T22:49:42.815Z,17.00
2023-02-22T22:52:11.828Z,18.77
2023-02-22T22:54:40.198Z,17.87
2023-02-22T22:57:08.324Z,17.10
2023-02-22T22:59:37.217Z,19.43
2023-02-22T23:02:11.048Z,22.60
2023-02-22T23:04:39.118Z,14.20
2023-02-22T23:07:09.487Z,18.37
2023-02-22T23:09:39.343Z,17.13
2023-02-22T23:12:09.843Z,16.97
2023-02-22T23:14:39.205Z,19.53
2023-02-22T23:17:14.377Z,17.27
2023-02-22T23:19:45.798Z,17.53
2023-02-22T23:22:17.605Z,20.43
2023-02-22T23:24:45.610Z,18.13
2023-02-22T23:27:14.255Z,24.43
2023-02-22T23:29:47.032Z,18.20
2023-02-22T23:32:15.460Z,16.43
2023-02-22T23:34:43.947Z,18.63
2023-02-22T23:37:14.549Z,15.80
2023-02-22T23:39:44.315Z,15.83
2023-02-22T23:42:16.728Z,23.67
2023-02-22T23:44:45.811Z,13.63
2023-02-22T23:47:16.325Z,20.00
2023-02-22T23:49:49.388Z,19.47
2023-02-22T23:52:24.548Z,17.70
2023-02-22T23:54:54.456Z,18.43
2023-02-22T23:57:22.602Z,15.93
2023-02-22T23:59:51.351Z,23.50
